sensor_id;sensor_type;location;lat;lon;timestamp;P1;durP1;ratioP1;P2;durP2;ratioP2
80621;SDS011;69980;51.914;7.526;2023-12-20T00:01:27;9.55;;;4.75;;
80621;SDS011;69980;51.914;7.526;2023-12-20T00:03:53;10.35;;;5.70;;
80621;SDS011;69980;51.914;7.526;2023-12-20T00:06:18;11.38;;;5.90;;
80621;SDS011;69980;51.914;7.526;2023-12-20T00:08:43;11.88;;;6.22;;
80621;SDS011;69980;51.914;7.526;2023-12-20T00:11:09;10.57;;;5.68;;
80621;SDS011;69980;51.914;7.526;2023-12-20T00:13:34;11.50;;;5.85;;
80621;SDS011;69980;51.914;7.526;2023-12-20T00:15:59;11.25;;;6.10;;
80621;SDS011;69980;51.914;7.526;2023-12-20T00:18:24;11.65;;;5.88;;
80621;SDS011;69980;51.914;7.526;2023-12-20T00:20:50;10.82;;;6.10;;
80621;SDS011;69980;51.914;7.526;2023-12-20T00:23:15;12.75;;;6.53;;
80621;SDS011;69980;51.914;7.526;2023-12-20T00:25:40;12.07;;;6.68;;
80621;SDS011;69980;51.914;7.526;2023-12-20T00:28:06;12.50;;;6.32;;
80621;SDS011;69980;51.914;7.526;2023-12-20T00:30:31;11.20;;;6.40;;
80621;SDS011;69980;51.914;7.526;2023-12-20T00:32:56;10.32;;;6.13;;
80621;SDS011;69980;51.914;7.526;2023-12-20T00:35:22;11.70;;;6.05;;
80621;SDS011;69980;51.914;7.526;2023-12-20T00:37:47;12.05;;;6.75;;
80621;SDS011;69980;51.914;7.526;2023-12-20T00:40:12;11.30;;;6.25;;
80621;SDS011;69980;51.914;7.526;2023-12-20T00:42:38;12.43;;;6.15;;
80621;SDS011;69980;51.914;7.526;2023-12-20T00:45:03;11.05;;;5.97;;
80621;SDS011;69980;51.914;7.526;2023-12-20T00:47:29;11.25;;;5.72;;
80621;SDS011;69980;51.914;7.526;2023-12-20T00:49:54;12.75;;;5.20;;
80621;SDS011;69980;51.914;7.526;2023-12-20T00:52:19;11.85;;;5.43;;
80621;SDS011;69980;51.914;7.526;2023-12-20T00:54:45;9.73;;;4.80;;
80621;SDS011;69980;51.914;7.526;2023-12-20T00:57:10;10.43;;;4.43;;
80621;SDS011;69980;51.914;7.526;2023-12-20T00:59:36;10.30;;;4.15;;
80621;SDS011;69980;51.914;7.526;2023-12-20T01:02:01;10.52;;;3.75;;
80621;SDS011;69980;51.914;7.526;2023-12-20T01:04:27;9.52;;;3.97;;
80621;SDS011;69980;51.914;7.526;2023-12-20T01:06:53;9.50;;;4.93;;
80621;SDS011;69980;51.914;7.526;2023-12-20T01:09:19;12.52;;;4.60;;
80621;SDS011;69980;51.914;7.526;2023-12-20T01:11:44;7.70;;;3.90;;
80621;SDS011;69980;51.914;7.526;2023-12-20T01:14:09;7.78;;;4.20;;
80621;SDS011;69980;51.914;7.526;2023-12-20T01:16:35;10.15;;;4.47;;
80621;SDS011;69980;51.914;7.526;2023-12-20T01:19:00;10.88;;;4.88;;
80621;SDS011;69980;51.914;7.526;2023-12-20T01:21:25;15.05;;;5.13;;
80621;SDS011;69980;51.914;7.526;2023-12-20T01:23:51;14.70;;;5.68;;
80621;SDS011;69980;51.914;7.526;2023-12-20T01:26:16;9.57;;;5.20;;
80621;SDS011;69980;51.914;7.526;2023-12-20T01:28:43;10.05;;;5.25;;
80621;SDS011;69980;51.914;7.526;2023-12-20T01:31:08;9.15;;;5.28;;
80621;SDS011;69980;51.914;7.526;2023-12-20T01:33:33;12.55;;;5.93;;
80621;SDS011;69980;51.914;7.526;2023-12-20T01:35:59;10.75;;;5.68;;
80621;SDS011;69980;51.914;7.526;2023-12-20T01:38:24;10.05;;;6.10;;
80621;SDS011;69980;51.914;7.526;2023-12-20T01:40:50;11.48;;;5.72;;
80621;SDS011;69980;51.914;7.526;2023-12-20T01:43:15;10.85;;;5.43;;
80621;SDS011;69980;51.914;7.526;2023-12-20T01:45:41;8.85;;;5.90;;
80621;SDS011;69980;51.914;7.526;2023-12-20T01:48:06;12.65;;;7.00;;
80621;SDS011;69980;51.914;7.526;2023-12-20T01:50:32;10.98;;;5.85;;
80621;SDS011;69980;51.914;7.526;2023-12-20T01:53:01;12.75;;;5.65;;
80621;SDS011;69980;51.914;7.526;2023-12-20T01:55:27;11.50;;;5.85;;
80621;SDS011;69980;51.914;7.526;2023-12-20T01:57:54;10.50;;;5.47;;
80621;SDS011;69980;51.914;7.526;2023-12-20T02:00:20;11.73;;;5.05;;
80621;SDS011;69980;51.914;7.526;2023-12-20T02:02:46;9.63;;;5.20;;
80621;SDS011;69980;51.914;7.526;2023-12-20T02:05:12;11.07;;;5.30;;
80621;SDS011;69980;51.914;7.526;2023-12-20T02:07:37;9.93;;;4.47;;
80621;SDS011;69980;51.914;7.526;2023-12-20T02:10:03;9.88;;;4.82;;
80621;SDS011;69980;51.914;7.526;2023-12-20T02:12:28;9.38;;;4.70;;
80621;SDS011;69980;51.914;7.526;2023-12-20T02:14:53;9.43;;;3.85;;
80621;SDS011;69980;51.914;7.526;2023-12-20T02:17:19;10.63;;;4.55;;
80621;SDS011;69980;51.914;7.526;2023-12-20T02:19:44;13.52;;;3.95;;
80621;SDS011;69980;51.914;7.526;2023-12-20T02:22:10;9.48;;;3.70;;
80621;SDS011;69980;51.914;7.526;2023-12-20T02:24:35;9.05;;;3.65;;
80621;SDS011;69980;51.914;7.526;2023-12-20T02:27:01;12.55;;;3.45;;
80621;SDS011;69980;51.914;7.526;2023-12-20T02:29:26;11.48;;;3.70;;
80621;SDS011;69980;51.914;7.526;2023-12-20T02:31:52;13.23;;;3.20;;
80621;SDS011;69980;51.914;7.526;2023-12-20T02:34:17;9.82;;;3.20;;
80621;SDS011;69980;51.914;7.526;2023-12-20T02:36:42;10.27;;;3.30;;
80621;SDS011;69980;51.914;7.526;2023-12-20T02:39:07;11.32;;;2.92;;
80621;SDS011;69980;51.914;7.526;2023-12-20T02:41:33;7.72;;;2.78;;
80621;SDS011;69980;51.914;7.526;2023-12-20T02:43:58;15.35;;;3.28;;
80621;SDS011;69980;51.914;7.526;2023-12-20T02:46:25;10.95;;;2.95;;
80621;SDS011;69980;51.914;7.526;2023-12-20T02:48:50;10.57;;;3.17;;
80621;SDS011;69980;51.914;7.526;2023-12-20T02:51:16;11.95;;;3.13;;
80621;SDS011;69980;51.914;7.526;2023-12-20T02:53:41;10.43;;;2.92;;
80621;SDS011;69980;51.914;7.526;2023-12-20T02:56:06;9.35;;;2.80;;
80621;SDS011;69980;51.914;7.526;2023-12-20T02:58:31;11.55;;;3.28;;
80621;SDS011;69980;51.914;7.526;2023-12-20T03:00:57;9.95;;;3.08;;
80621;SDS011;69980;51.914;7.526;2023-12-20T03:03:22;13.40;;;3.53;;
80621;SDS011;69980;51.914;7.526;2023-12-20T03:05:47;9.07;;;3.25;;
80621;SDS011;69980;51.914;7.526;2023-12-20T03:08:13;12.75;;;3.22;;
80621;SDS011;69980;51.914;7.526;2023-12-20T03:10:38;13.73;;;3.20;;
80621;SDS011;69980;51.914;7.526;2023-12-20T03:13:03;13.95;;;2.92;;
80621;SDS011;69980;51.914;7.526;2023-12-20T03:15:29;9.73;;;2.90;;
80621;SDS011;69980;51.914;7.526;2023-12-20T03:17:54;10.45;;;3.00;;
80621;SDS011;69980;51.914;7.526;2023-12-20T03:20:19;11.98;;;3.03;;
80621;SDS011;69980;51.914;7.526;2023-12-20T03:22:45;11.18;;;3.22;;
80621;SDS011;69980;51.914;7.526;2023-12-20T03:25:10;8.68;;;2.72;;
80621;SDS011;69980;51.914;7.526;2023-12-20T03:27:38;12.40;;;4.05;;
80621;SDS011;69980;51.914;7.526;2023-12-20T03:30:03;15.32;;;3.50;;
80621;SDS011;69980;51.914;7.526;2023-12-20T03:32:29;13.32;;;3.33;;
80621;SDS011;69980;51.914;7.526;2023-12-20T03:34:55;9.82;;;3.30;;
80621;SDS011;69980;51.914;7.526;2023-12-20T03:37:21;15.95;;;3.15;;
80621;SDS011;69980;51.914;7.526;2023-12-20T03:39:47;12.75;;;3.10;;
80621;SDS011;69980;51.914;7.526;2023-12-20T03:42:12;11.75;;;2.85;;
80621;SDS011;69980;51.914;7.526;2023-12-20T03:44:40;11.15;;;2.65;;
80621;SDS011;69980;51.914;7.526;2023-12-20T03:47:06;10.38;;;3.15;;
80621;SDS011;69980;51.914;7.526;2023-12-20T03:49:31;15.52;;;3.08;;
80621;SDS011;69980;51.914;7.526;2023-12-20T03:51:56;9.10;;;2.20;;
80621;SDS011;69980;51.914;7.526;2023-12-20T03:54:22;13.80;;;3.22;;
80621;SDS011;69980;51.914;7.526;2023-12-20T03:56:47;9.93;;;2.45;;
80621;SDS011;69980;51.914;7.526;2023-12-20T03:59:12;8.07;;;2.55;;
80621;SDS011;69980;51.914;7.526;2023-12-20T04:01:37;11.10;;;2.40;;
80621;SDS011;69980;51.914;7.526;2023-12-20T04:04:03;11.45;;;2.50;;
80621;SDS011;69980;51.914;7.526;2023-12-20T04:06:28;15.45;;;3.08;;
80621;SDS011;69980;51.914;7.526;2023-12-20T04:08:53;11.25;;;2.65;;
80621;SDS011;69980;51.914;7.526;2023-12-20T04:11:19;10.93;;;2.83;;
80621;SDS011;69980;51.914;7.526;2023-12-20T04:13:44;16.17;;;3.17;;
80621;SDS011;69980;51.914;7.526;2023-12-20T04:16:09;16.83;;;3.40;;
80621;SDS011;69980;51.914;7.526;2023-12-20T04:18:35;14.00;;;3.65;;
80621;SDS011;69980;51.914;7.526;2023-12-20T04:21:00;14.85;;;3.70;;
80621;SDS011;69980;51.914;7.526;2023-12-20T04:23:25;12.18;;;3.33;;
80621;SDS011;69980;51.914;7.526;2023-12-20T04:25:50;17.60;;;3.78;;
80621;SDS011;69980;51.914;7.526;2023-12-20T04:28:16;11.80;;;3.85;;
80621;SDS011;69980;51.914;7.526;2023-12-20T04:30:41;14.77;;;4.75;;
80621;SDS011;69980;51.914;7.526;2023-12-20T04:33:07;12.57;;;4.35;;
80621;SDS011;69980;51.914;7.526;2023-12-20T04:35:32;11.68;;;4.07;;
80621;SDS011;69980;51.914;7.526;2023-12-20T04:37:58;11.05;;;4.82;;
80621;SDS011;69980;51.914;7.526;2023-12-20T04:40:24;19.00;;;4.78;;
80621;SDS011;69980;51.914;7.526;2023-12-20T04:42:50;14.00;;;4.90;;
80621;SDS011;69980;51.914;7.526;2023-12-20T04:45:16;13.63;;;4.68;;
80621;SDS011;69980;51.914;7.526;2023-12-20T04:47:42;14.90;;;4.65;;
80621;SDS011;69980;51.914;7.526;2023-12-20T04:50:07;15.07;;;4.80;;
80621;SDS011;69980;51.914;7.526;2023-12-20T04:52:33;14.70;;;5.13;;
80621;SDS011;69980;51.914;7.526;2023-12-20T04:54:58;15.32;;;4.93;;
80621;SDS011;69980;51.914;7.526;2023-12-20T04:57:23;11.35;;;4.70;;
80621;SDS011;69980;51.914;7.526;2023-12-20T04:59:49;16.90;;;5.00;;
80621;SDS011;69980;51.914;7.526;2023-12-20T05:02:14;11.93;;;4.75;;
80621;SDS011;69980;51.914;7.526;2023-12-20T05:04:39;19.45;;;5.20;;
80621;SDS011;69980;51.914;7.526;2023-12-20T05:07:04;15.55;;;4.90;;
80621;SDS011;69980;51.914;7.526;2023-12-20T05:09:30;20.42;;;5.75;;
80621;SDS011;69980;51.914;7.526;2023-12-20T05:11:55;14.45;;;4.95;;
80621;SDS011;69980;51.914;7.526;2023-12-20T05:14:20;19.25;;;5.90;;
80621;SDS011;69980;51.914;7.526;2023-12-20T05:16:46;16.95;;;6.25;;
80621;SDS011;69980;51.914;7.526;2023-12-20T05:19:11;14.73;;;5.53;;
80621;SDS011;69980;51.914;7.526;2023-12-20T05:21:36;14.75;;;5.72;;
80621;SDS011;69980;51.914;7.526;2023-12-20T05:24:02;15.30;;;5.55;;
80621;SDS011;69980;51.914;7.526;2023-12-20T05:26:27;14.50;;;4.68;;
80621;SDS011;69980;51.914;7.526;2023-12-20T05:28:52;15.75;;;5.22;;
80621;SDS011;69980;51.914;7.526;2023-12-20T05:31:18;13.15;;;5.00;;
80621;SDS011;69980;51.914;7.526;2023-12-20T05:33:43;17.83;;;5.35;;
80621;SDS011;69980;51.914;7.526;2023-12-20T05:36:08;13.70;;;4.70;;
80621;SDS011;69980;51.914;7.526;2023-12-20T05:38:33;12.70;;;4.65;;
80621;SDS011;69980;51.914;7.526;2023-12-20T05:40:59;17.15;;;5.20;;
80621;SDS011;69980;51.914;7.526;2023-12-20T05:43:24;13.30;;;4.10;;
80621;SDS011;69980;51.914;7.526;2023-12-20T05:45:49;10.57;;;4.15;;
80621;SDS011;69980;51.914;7.526;2023-12-20T05:48:14;15.82;;;4.80;;
80621;SDS011;69980;51.914;7.526;2023-12-20T05:50:40;14.55;;;4.50;;
80621;SDS011;69980;51.914;7.526;2023-12-20T05:53:05;15.32;;;4.70;;
80621;SDS011;69980;51.914;7.526;2023-12-20T05:55:30;19.02;;;4.32;;
80621;SDS011;69980;51.914;7.526;2023-12-20T05:57:56;14.30;;;3.95;;
80621;SDS011;69980;51.914;7.526;2023-12-20T06:00:21;16.58;;;4.28;;
80621;SDS011;69980;51.914;7.526;2023-12-20T06:02:46;14.23;;;4.80;;
80621;SDS011;69980;51.914;7.526;2023-12-20T06:05:11;13.38;;;4.30;;
80621;SDS011;69980;51.914;7.526;2023-12-20T06:07:37;16.08;;;4.45;;
80621;SDS011;69980;51.914;7.526;2023-12-20T06:10:02;14.13;;;4.13;;
80621;SDS011;69980;51.914;7.526;2023-12-20T06:12:28;14.18;;;4.18;;
80621;SDS011;69980;51.914;7.526;2023-12-20T06:14:53;16.23;;;4.18;;
80621;SDS011;69980;51.914;7.526;2023-12-20T06:17:18;15.18;;;3.85;;
80621;SDS011;69980;51.914;7.526;2023-12-20T06:19:44;14.15;;;4.10;;
80621;SDS011;69980;51.914;7.526;2023-12-20T06:22:09;13.23;;;4.03;;
80621;SDS011;69980;51.914;7.526;2023-12-20T06:24:36;15.07;;;4.10;;
80621;SDS011;69980;51.914;7.526;2023-12-20T06:27:01;12.10;;;3.97;;
80621;SDS011;69980;51.914;7.526;2023-12-20T06:29:27;15.13;;;4.03;;
80621;SDS011;69980;51.914;7.526;2023-12-20T06:31:53;11.23;;;3.20;;
80621;SDS011;69980;51.914;7.526;2023-12-20T06:34:18;17.23;;;3.75;;
80621;SDS011;69980;51.914;7.526;2023-12-20T06:36:43;16.35;;;3.72;;
80621;SDS011;69980;51.914;7.526;2023-12-20T06:39:09;15.05;;;3.90;;
80621;SDS011;69980;51.914;7.526;2023-12-20T06:41:34;16.27;;;3.88;;
80621;SDS011;69980;51.914;7.526;2023-12-20T06:43:59;14.55;;;3.80;;
80621;SDS011;69980;51.914;7.526;2023-12-20T06:46:24;14.80;;;3.65;;
80621;SDS011;69980;51.914;7.526;2023-12-20T06:48:50;16.63;;;3.70;;
80621;SDS011;69980;51.914;7.526;2023-12-20T06:51:15;16.30;;;3.63;;
80621;SDS011;69980;51.914;7.526;2023-12-20T06:53:41;12.35;;;3.47;;
80621;SDS011;69980;51.914;7.526;2023-12-20T06:56:06;16.27;;;3.40;;
80621;SDS011;69980;51.914;7.526;2023-12-20T06:58:32;13.02;;;3.45;;
80621;SDS011;69980;51.914;7.526;2023-12-20T07:00:57;15.45;;;3.40;;
80621;SDS011;69980;51.914;7.526;2023-12-20T07:03:22;15.98;;;3.88;;
80621;SDS011;69980;51.914;7.526;2023-12-20T07:05:48;10.80;;;3.33;;
80621;SDS011;69980;51.914;7.526;2023-12-20T07:08:14;16.52;;;3.97;;
80621;SDS011;69980;51.914;7.526;2023-12-20T07:10:39;13.40;;;3.70;;
80621;SDS011;69980;51.914;7.526;2023-12-20T07:13:04;11.55;;;3.88;;
80621;SDS011;69980;51.914;7.526;2023-12-20T07:15:29;14.98;;;3.47;;
80621;SDS011;69980;51.914;7.526;2023-12-20T07:17:55;13.18;;;3.58;;
80621;SDS011;69980;51.914;7.526;2023-12-20T07:20:20;17.83;;;4.03;;
80621;SDS011;69980;51.914;7.526;2023-12-20T07:22:45;14.40;;;3.80;;
80621;SDS011;69980;51.914;7.526;2023-12-20T07:25:11;14.25;;;4.80;;
80621;SDS011;69980;51.914;7.526;2023-12-20T07:27:36;17.98;;;4.63;;
80621;SDS011;69980;51.914;7.526;2023-12-20T07:30:02;10.38;;;3.90;;
80621;SDS011;69980;51.914;7.526;2023-12-20T07:32:28;14.02;;;4.78;;
80621;SDS011;69980;51.914;7.526;2023-12-20T07:34:53;16.10;;;4.50;;
80621;SDS011;69980;51.914;7.526;2023-12-20T07:37:18;14.52;;;3.92;;
80621;SDS011;69980;51.914;7.526;2023-12-20T07:39:44;15.90;;;4.28;;
80621;SDS011;69980;51.914;7.526;2023-12-20T07:42:09;16.25;;;4.60;;
80621;SDS011;69980;51.914;7.526;2023-12-20T07:44:34;13.85;;;3.97;;
80621;SDS011;69980;51.914;7.526;2023-12-20T07:47:00;17.05;;;4.63;;
80621;SDS011;69980;51.914;7.526;2023-12-20T07:49:25;10.63;;;3.88;;
80621;SDS011;69980;51.914;7.526;2023-12-20T07:51:52;21.25;;;4.50;;
80621;SDS011;69980;51.914;7.526;2023-12-20T07:54:17;16.25;;;4.57;;
80621;SDS011;69980;51.914;7.526;2023-12-20T07:56:46;14.63;;;4.72;;
80621;SDS011;69980;51.914;7.526;2023-12-20T07:59:11;17.33;;;4.65;;
80621;SDS011;69980;51.914;7.526;2023-12-20T08:01:37;15.25;;;4.90;;
80621;SDS011;69980;51.914;7.526;2023-12-20T08:04:02;18.65;;;4.85;;
80621;SDS011;69980;51.914;7.526;2023-12-20T08:06:27;11.07;;;4.38;;
80621;SDS011;69980;51.914;7.526;2023-12-20T08:08:53;15.60;;;5.43;;
80621;SDS011;69980;51.914;7.526;2023-12-20T08:11:18;14.23;;;4.55;;
80621;SDS011;69980;51.914;7.526;2023-12-20T08:13:43;14.30;;;5.30;;
80621;SDS011;69980;51.914;7.526;2023-12-20T08:16:09;15.98;;;5.00;;
80621;SDS011;69980;51.914;7.526;2023-12-20T08:18:34;19.10;;;4.80;;
80621;SDS011;69980;51.914;7.526;2023-12-20T08:20:59;18.67;;;4.53;;
80621;SDS011;69980;51.914;7.526;2023-12-20T08:23:26;20.88;;;5.00;;
80621;SDS011;69980;51.914;7.526;2023-12-20T08:25:51;19.63;;;4.88;;
80621;SDS011;69980;51.914;7.526;2023-12-20T08:28:16;15.68;;;4.72;;
80621;SDS011;69980;51.914;7.526;2023-12-20T08:30:42;16.98;;;4.57;;
80621;SDS011;69980;51.914;7.526;2023-12-20T08:33:07;16.88;;;4.95;;
80621;SDS011;69980;51.914;7.526;2023-12-20T08:35:32;13.88;;;4.65;;
80621;SDS011;69980;51.914;7.526;2023-12-20T08:37:58;19.33;;;5.15;;
80621;SDS011;69980;51.914;7.526;2023-12-20T08:40:23;19.23;;;5.13;;
80621;SDS011;69980;51.914;7.526;2023-12-20T08:42:48;15.68;;;5.10;;
80621;SDS011;69980;51.914;7.526;2023-12-20T08:45:15;16.42;;;5.57;;
80621;SDS011;69980;51.914;7.526;2023-12-20T08:47:40;15.30;;;4.28;;
80621;SDS011;69980;51.914;7.526;2023-12-20T08:50:06;17.02;;;4.60;;
80621;SDS011;69980;51.914;7.526;2023-12-20T08:52:31;13.48;;;4.53;;
80621;SDS011;69980;51.914;7.526;2023-12-20T08:54:57;13.50;;;4.07;;
80621;SDS011;69980;51.914;7.526;2023-12-20T08:57:22;15.95;;;4.10;;
80621;SDS011;69980;51.914;7.526;2023-12-20T08:59:47;15.18;;;4.28;;
80621;SDS011;69980;51.914;7.526;2023-12-20T09:02:13;15.13;;;4.18;;
80621;SDS011;69980;51.914;7.526;2023-12-20T09:04:39;11.07;;;3.90;;
80621;SDS011;69980;51.914;7.526;2023-12-20T09:07:04;16.80;;;4.65;;
80621;SDS011;69980;51.914;7.526;2023-12-20T09:09:30;12.95;;;3.60;;
80621;SDS011;69980;51.914;7.526;2023-12-20T09:11:55;17.55;;;4.57;;
80621;SDS011;69980;51.914;7.526;2023-12-20T09:14:20;20.75;;;4.63;;
80621;SDS011;69980;51.914;7.526;2023-12-20T09:16:46;16.70;;;5.18;;
80621;SDS011;69980;51.914;7.526;2023-12-20T09:19:11;13.27;;;4.13;;
80621;SDS011;69980;51.914;7.526;2023-12-20T09:21:36;12.43;;;4.15;;
80621;SDS011;69980;51.914;7.526;2023-12-20T09:24:02;12.80;;;3.80;;
80621;SDS011;69980;51.914;7.526;2023-12-20T09:26:27;16.67;;;4.20;;
80621;SDS011;69980;51.914;7.526;2023-12-20T09:28:52;18.60;;;4.13;;
80621;SDS011;69980;51.914;7.526;2023-12-20T09:31:17;15.48;;;4.05;;
80621;SDS011;69980;51.914;7.526;2023-12-20T09:33:43;13.10;;;4.57;;
80621;SDS011;69980;51.914;7.526;2023-12-20T09:36:08;14.10;;;4.15;;
80621;SDS011;69980;51.914;7.526;2023-12-20T09:38:33;16.33;;;4.13;;
80621;SDS011;69980;51.914;7.526;2023-12-20T09:40:59;14.27;;;3.70;;
80621;SDS011;69980;51.914;7.526;2023-12-20T09:43:24;17.75;;;4.80;;
80621;SDS011;69980;51.914;7.526;2023-12-20T09:45:49;17.95;;;4.20;;
80621;SDS011;69980;51.914;7.526;2023-12-20T09:48:18;16.98;;;4.30;;
80621;SDS011;69980;51.914;7.526;2023-12-20T09:50:43;14.88;;;3.60;;
80621;SDS011;69980;51.914;7.526;2023-12-20T09:53:10;13.00;;;3.53;;
80621;SDS011;69980;51.914;7.526;2023-12-20T09:55:37;17.27;;;4.07;;
80621;SDS011;69980;51.914;7.526;2023-12-20T09:58:03;15.73;;;4.07;;
80621;SDS011;69980;51.914;7.526;2023-12-20T10:00:28;17.00;;;3.72;;
80621;SDS011;69980;51.914;7.526;2023-12-20T10:02:57;14.68;;;3.70;;
80621;SDS011;69980;51.914;7.526;2023-12-20T10:05:26;12.73;;;3.53;;
80621;SDS011;69980;51.914;7.526;2023-12-20T10:07:52;18.92;;;3.70;;
80621;SDS011;69980;51.914;7.526;2023-12-20T10:10:17;14.32;;;3.78;;
80621;SDS011;69980;51.914;7.526;2023-12-20T10:13:00;12.65;;;3.15;;
80621;SDS011;69980;51.914;7.526;2023-12-20T10:15:29;12.02;;;3.40;;
80621;SDS011;69980;51.914;7.526;2023-12-20T10:17:55;15.02;;;3.20;;
80621;SDS011;69980;51.914;7.526;2023-12-20T10:20:20;13.20;;;3.35;;
80621;SDS011;69980;51.914;7.526;2023-12-20T10:22:46;14.35;;;3.60;;
80621;SDS011;69980;51.914;7.526;2023-12-20T10:25:11;13.60;;;3.28;;
80621;SDS011;69980;51.914;7.526;2023-12-20T10:27:37;13.40;;;3.30;;
80621;SDS011;69980;51.914;7.526;2023-12-20T10:30:02;10.13;;;3.28;;
80621;SDS011;69980;51.914;7.526;2023-12-20T10:32:28;9.20;;;2.67;;
80621;SDS011;69980;51.914;7.526;2023-12-20T10:34:54;12.20;;;3.08;;
80621;SDS011;69980;51.914;7.526;2023-12-20T10:37:20;13.30;;;3.03;;
80621;SDS011;69980;51.914;7.526;2023-12-20T10:39:49;13.57;;;3.17;;
80621;SDS011;69980;51.914;7.526;2023-12-20T10:42:15;15.27;;;2.97;;
80621;SDS011;69980;51.914;7.526;2023-12-20T10:44:41;11.73;;;2.92;;
80621;SDS011;69980;51.914;7.526;2023-12-20T10:47:07;16.95;;;4.50;;
80621;SDS011;69980;51.914;7.526;2023-12-20T10:49:34;14.60;;;3.30;;
80621;SDS011;69980;51.914;7.526;2023-12-20T10:52:01;13.70;;;3.35;;
80621;SDS011;69980;51.914;7.526;2023-12-20T10:54:27;11.10;;;2.78;;
80621;SDS011;69980;51.914;7.526;2023-12-20T10:56:53;12.70;;;2.95;;
80621;SDS011;69980;51.914;7.526;2023-12-20T10:59:19;13.32;;;2.83;;
80621;SDS011;69980;51.914;7.526;2023-12-20T11:01:45;10.70;;;2.55;;
80621;SDS011;69980;51.914;7.526;2023-12-20T11:04:13;10.20;;;2.72;;
80621;SDS011;69980;51.914;7.526;2023-12-20T11:06:58;9.57;;;2.70;;
80621;SDS011;69980;51.914;7.526;2023-12-20T11:09:31;11.07;;;2.90;;
80621;SDS011;69980;51.914;7.526;2023-12-20T11:17:12;13.27;;;3.00;;
80621;SDS011;69980;51.914;7.526;2023-12-20T11:20:22;12.60;;;3.05;;
80621;SDS011;69980;51.914;7.526;2023-12-20T11:22:26;10.98;;;2.83;;
80621;SDS011;69980;51.914;7.526;2023-12-20T11:24:53;11.50;;;2.70;;
80621;SDS011;69980;51.914;7.526;2023-12-20T11:27:19;11.65;;;2.90;;
80621;SDS011;69980;51.914;7.526;2023-12-20T11:29:51;10.15;;;2.80;;
80621;SDS011;69980;51.914;7.526;2023-12-20T11:34:53;11.23;;;2.93;;
80621;SDS011;69980;51.914;7.526;2023-12-20T11:37:19;9.43;;;2.72;;
80621;SDS011;69980;51.914;7.526;2023-12-20T11:39:44;9.75;;;2.55;;
80621;SDS011;69980;51.914;7.526;2023-12-20T11:42:10;7.70;;;2.60;;
80621;SDS011;69980;51.914;7.526;2023-12-20T11:44:36;9.75;;;2.50;;
80621;SDS011;69980;51.914;7.526;2023-12-20T11:47:01;11.68;;;2.78;;
80621;SDS011;69980;51.914;7.526;2023-12-20T11:49:27;8.13;;;2.70;;
80621;SDS011;69980;51.914;7.526;2023-12-20T11:51:52;9.80;;;2.88;;
80621;SDS011;69980;51.914;7.526;2023-12-20T11:54:17;13.00;;;3.15;;
80621;SDS011;69980;51.914;7.526;2023-12-20T11:56:43;10.15;;;2.75;;
80621;SDS011;69980;51.914;7.526;2023-12-20T11:59:08;14.88;;;3.30;;
80621;SDS011;69980;51.914;7.526;2023-12-20T12:01:34;13.30;;;3.00;;
80621;SDS011;69980;51.914;7.526;2023-12-20T12:04:03;14.60;;;2.78;;
80621;SDS011;69980;51.914;7.526;2023-12-20T12:06:31;14.02;;;3.13;;
80621;SDS011;69980;51.914;7.526;2023-12-20T12:08:57;13.55;;;3.25;;
80621;SDS011;69980;51.914;7.526;2023-12-20T12:11:22;12.60;;;2.85;;
80621;SDS011;69980;51.914;7.526;2023-12-20T12:13:48;10.38;;;3.05;;
80621;SDS011;69980;51.914;7.526;2023-12-20T12:16:16;13.32;;;3.00;;
80621;SDS011;69980;51.914;7.526;2023-12-20T12:18:42;13.10;;;3.58;;
80621;SDS011;69980;51.914;7.526;2023-12-20T12:21:08;13.63;;;3.15;;
80621;SDS011;69980;51.914;7.526;2023-12-20T12:23:33;11.77;;;3.17;;
80621;SDS011;69980;51.914;7.526;2023-12-20T12:25:58;10.05;;;2.90;;
80621;SDS011;69980;51.914;7.526;2023-12-20T12:28:25;16.35;;;3.70;;
80621;SDS011;69980;51.914;7.526;2023-12-20T12:31:00;11.15;;;3.13;;
80621;SDS011;69980;51.914;7.526;2023-12-20T12:33:26;9.85;;;2.65;;
80621;SDS011;69980;51.914;7.526;2023-12-20T12:35:52;12.93;;;2.83;;
80621;SDS011;69980;51.914;7.526;2023-12-20T12:38:20;10.98;;;3.05;;
80621;SDS011;69980;51.914;7.526;2023-12-20T12:40:46;10.02;;;2.58;;
80621;SDS011;69980;51.914;7.526;2023-12-20T12:43:12;14.07;;;3.33;;
80621;SDS011;69980;51.914;7.526;2023-12-20T12:45:38;7.72;;;2.28;;
80621;SDS011;69980;51.914;7.526;2023-12-20T12:48:03;10.48;;;2.80;;
80621;SDS011;69980;51.914;7.526;2023-12-20T12:50:30;12.15;;;3.08;;
80621;SDS011;69980;51.914;7.526;2023-12-20T12:52:55;10.70;;;3.20;;
80621;SDS011;69980;51.914;7.526;2023-12-20T12:55:21;14.00;;;3.35;;
80621;SDS011;69980;51.914;7.526;2023-12-20T12:57:46;11.77;;;3.30;;
80621;SDS011;69980;51.914;7.526;2023-12-20T13:00:11;13.07;;;3.53;;
80621;SDS011;69980;51.914;7.526;2023-12-20T13:02:37;11.70;;;3.20;;
80621;SDS011;69980;51.914;7.526;2023-12-20T13:05:02;12.77;;;3.28;;
80621;SDS011;69980;51.914;7.526;2023-12-20T13:07:28;12.93;;;2.90;;
80621;SDS011;69980;51.914;7.526;2023-12-20T13:09:53;10.75;;;2.78;;
80621;SDS011;69980;51.914;7.526;2023-12-20T13:12:19;14.38;;;3.63;;
80621;SDS011;69980;51.914;7.526;2023-12-20T13:14:44;12.48;;;3.03;;
80621;SDS011;69980;51.914;7.526;2023-12-20T13:17:09;13.02;;;3.35;;
80621;SDS011;69980;51.914;7.526;2023-12-20T13:19:35;11.60;;;3.20;;
80621;SDS011;69980;51.914;7.526;2023-12-20T13:22:00;13.13;;;2.78;;
80621;SDS011;69980;51.914;7.526;2023-12-20T13:24:25;13.93;;;3.13;;
80621;SDS011;69980;51.914;7.526;2023-12-20T13:26:51;13.57;;;3.20;;
80621;SDS011;69980;51.914;7.526;2023-12-20T13:29:16;12.52;;;2.97;;
80621;SDS011;69980;51.914;7.526;2023-12-20T13:31:41;14.57;;;3.20;;
80621;SDS011;69980;51.914;7.526;2023-12-20T13:34:06;16.80;;;3.42;;
80621;SDS011;69980;51.914;7.526;2023-12-20T13:36:32;15.05;;;3.05;;
80621;SDS011;69980;51.914;7.526;2023-12-20T13:38:57;11.43;;;3.28;;
80621;SDS011;69980;51.914;7.526;2023-12-20T13:41:22;11.70;;;3.15;;
80621;SDS011;69980;51.914;7.526;2023-12-20T13:43:48;13.02;;;3.00;;
80621;SDS011;69980;51.914;7.526;2023-12-20T13:46:13;16.08;;;3.38;;
80621;SDS011;69980;51.914;7.526;2023-12-20T13:48:38;10.18;;;2.65;;
80621;SDS011;69980;51.914;7.526;2023-12-20T13:51:04;13.05;;;2.67;;
80621;SDS011;69980;51.914;7.526;2023-12-20T13:53:29;12.40;;;2.78;;
80621;SDS011;69980;51.914;7.526;2023-12-20T13:55:54;12.65;;;3.00;;
80621;SDS011;69980;51.914;7.526;2023-12-20T13:58:20;14.35;;;2.90;;
80621;SDS011;69980;51.914;7.526;2023-12-20T14:00:45;11.02;;;3.17;;
80621;SDS011;69980;51.914;7.526;2023-12-20T14:03:10;14.65;;;3.08;;
80621;SDS011;69980;51.914;7.526;2023-12-20T14:05:35;12.23;;;3.00;;
80621;SDS011;69980;51.914;7.526;2023-12-20T14:08:01;11.45;;;3.55;;
80621;SDS011;69980;51.914;7.526;2023-12-20T14:10:26;11.68;;;3.05;;
80621;SDS011;69980;51.914;7.526;2023-12-20T14:12:52;13.20;;;3.20;;
80621;SDS011;69980;51.914;7.526;2023-12-20T14:15:18;15.13;;;3.33;;
80621;SDS011;69980;51.914;7.526;2023-12-20T14:17:43;9.98;;;3.33;;
80621;SDS011;69980;51.914;7.526;2023-12-20T14:20:09;11.70;;;2.85;;
80621;SDS011;69980;51.914;7.526;2023-12-20T14:22:35;9.52;;;3.13;;
80621;SDS011;69980;51.914;7.526;2023-12-20T14:25:00;13.43;;;2.75;;
80621;SDS011;69980;51.914;7.526;2023-12-20T14:27:26;9.30;;;3.22;;
80621;SDS011;69980;51.914;7.526;2023-12-20T14:29:52;13.15;;;2.90;;
80621;SDS011;69980;51.914;7.526;2023-12-20T14:32:17;14.25;;;3.60;;
80621;SDS011;69980;51.914;7.526;2023-12-20T14:34:42;15.85;;;3.55;;